sensor_id;sensor_type;location;lat;lon;timestamp;P1;durP1;ratioP1;P2;durP2;ratioP2
18304;SDS011;9278;52.156;21.048;2023-03-31T00:01:19;22.02;;;11.48;;
18304;SDS011;9278;52.156;21.048;2023-03-31T00:03:49;23.77;;;11.25;;
18304;SDS011;9278;52.156;21.048;2023-03-31T00:06:18;19.92;;;11.13;;
18304;SDS011;9278;52.156;21.048;2023-03-31T00:08:46;20.30;;;11.63;;
18304;SDS011;9278;52.156;21.048;2023-03-31T00:11:18;23.02;;;12.27;;
18304;SDS011;9278;52.156;21.048;2023-03-31T00:13:48;20.98;;;11.32;;
18304;SDS011;9278;52.156;21.048;2023-03-31T00:16:16;19.55;;;11.13;;
18304;SDS011;9278;52.156;21.048;2023-03-31T00:18:45;19.15;;;11.90;;
18304;SDS011;9278;52.156;21.048;2023-03-31T00:21:16;20.17;;;11.23;;
18304;SDS011;9278;52.156;21.048;2023-03-31T00:23:54;22.50;;;11.48;;
18304;SDS011;9278;52.156;21.048;2023-03-31T00:26:24;17.45;;;10.43;;
18304;SDS011;9278;52.156;21.048;2023-03-31T00:28:55;18.70;;;10.90;;
18304;SDS011;9278;52.156;21.048;2023-03-31T00:31:25;17.70;;;10.50;;
18304;SDS011;9278;52.156;21.048;2023-03-31T00:33:54;18.15;;;10.52;;
18304;SDS011;9278;52.156;21.048;2023-03-31T00:36:22;19.77;;;11.18;;
18304;SDS011;9278;52.156;21.048;2023-03-31T00:38:54;23.52;;;11.13;;
18304;SDS011;9278;52.156;21.048;2023-03-31T00:41:25;20.30;;;10.57;;
18304;SDS011;9278;52.156;21.048;2023-03-31T00:44:03;20.60;;;10.70;;
18304;SDS011;9278;52.156;21.048;2023-03-31T00:46:43;17.73;;;10.50;;
18304;SDS011;9278;52.156;21.048;2023-03-31T00:49:17;18.40;;;10.43;;
18304;SDS011;9278;52.156;21.048;2023-03-31T00:51:49;18.27;;;10.13;;
18304;SDS011;9278;52.156;21.048;2023-03-31T00:54:20;22.05;;;10.85;;
18304;SDS011;9278;52.156;21.048;2023-03-31T00:56:52;20.65;;;10.20;;
18304;SDS011;9278;52.156;21.048;2023-03-31T00:59:30;18.30;;;9.82;;
18304;SDS011;9278;52.156;21.048;2023-03-31T01:02:04;17.05;;;9.77;;
18304;SDS011;9278;52.156;21.048;2023-03-31T01:04:34;18.10;;;9.95;;
18304;SDS011;9278;52.156;21.048;2023-03-31T01:07:07;20.08;;;9.23;;
18304;SDS011;9278;52.156;21.048;2023-03-31T01:09:42;18.33;;;9.07;;
18304;SDS011;9278;52.156;21.048;2023-03-31T01:12:14;16.38;;;9.60;;
18304;SDS011;9278;52.156;21.048;2023-03-31T01:14:46;16.42;;;9.50;;
18304;SDS011;9278;52.156;21.048;2023-03-31T01:17:16;19.52;;;9.80;;
18304;SDS011;9278;52.156;21.048;2023-03-31T01:19:51;18.00;;;9.52;;
18304;SDS011;9278;52.156;21.048;2023-03-31T01:22:49;15.35;;;9.48;;
18304;SDS011;9278;52.156;21.048;2023-03-31T01:25:46;18.30;;;9.77;;
18304;SDS011;9278;52.156;21.048;2023-03-31T01:28:32;19.40;;;9.60;;
18304;SDS011;9278;52.156;21.048;2023-03-31T01:31:20;16.73;;;9.18;;
18304;SDS011;9278;52.156;21.048;2023-03-31T01:37:38;18.33;;;9.27;;
18304;SDS011;9278;52.156;21.048;2023-03-31T01:40:25;18.75;;;8.77;;
18304;SDS011;9278;52.156;21.048;2023-03-31T01:43:15;15.88;;;8.88;;
18304;SDS011;9278;52.156;21.048;2023-03-31T01:45:52;16.40;;;9.77;;
18304;SDS011;9278;52.156;21.048;2023-03-31T01:48:26;16.38;;;8.90;;
18304;SDS011;9278;52.156;21.048;2023-03-31T01:51:04;14.75;;;8.82;;
18304;SDS011;9278;52.156;21.048;2023-03-31T01:53:41;15.18;;;9.77;;
18304;SDS011;9278;52.156;21.048;2023-03-31T01:56:18;14.10;;;8.65;;
18304;SDS011;9278;52.156;21.048;2023-03-31T01:58:52;15.15;;;8.68;;
18304;SDS011;9278;52.156;21.048;2023-03-31T02:01:27;16.55;;;9.32;;
18304;SDS011;9278;52.156;21.048;2023-03-31T02:04:04;19.83;;;8.82;;
18304;SDS011;9278;52.156;21.048;2023-03-31T02:06:37;15.15;;;8.65;;
18304;SDS011;9278;52.156;21.048;2023-03-31T02:09:08;15.13;;;8.80;;
18304;SDS011;9278;52.156;21.048;2023-03-31T02:11:41;13.82;;;8.65;;
18304;SDS011;9278;52.156;21.048;2023-03-31T02:14:11;17.48;;;8.70;;
18304;SDS011;9278;52.156;21.048;2023-03-31T02:16:44;17.88;;;8.65;;
18304;SDS011;9278;52.156;21.048;2023-03-31T02:19:16;15.52;;;8.88;;
18304;SDS011;9278;52.156;21.048;2023-03-31T02:21:47;15.55;;;8.20;;
18304;SDS011;9278;52.156;21.048;2023-03-31T02:24:16;15.55;;;8.35;;
18304;SDS011;9278;52.156;21.048;2023-03-31T02:26:51;15.07;;;8.43;;
18304;SDS011;9278;52.156;21.048;2023-03-31T02:29:21;15.90;;;8.57;;
18304;SDS011;9278;52.156;21.048;2023-03-31T02:31:51;14.15;;;8.43;;
18304;SDS011;9278;52.156;21.048;2023-03-31T02:34:26;11.20;;;7.65;;
18304;SDS011;9278;52.156;21.048;2023-03-31T02:36:55;14.30;;;8.18;;
18304;SDS011;9278;52.156;21.048;2023-03-31T02:39:24;12.63;;;8.52;;
18304;SDS011;9278;52.156;21.048;2023-03-31T02:41:57;13.25;;;8.02;;
18304;SDS011;9278;52.156;21.048;2023-03-31T02:44:27;13.70;;;7.80;;
18304;SDS011;9278;52.156;21.048;2023-03-31T02:46:56;11.30;;;8.00;;
18304;SDS011;9278;52.156;21.048;2023-03-31T02:49:25;14.50;;;7.75;;
18304;SDS011;9278;52.156;21.048;2023-03-31T02:52:09;12.77;;;8.13;;
18304;SDS011;9278;52.156;21.048;2023-03-31T02:54:58;13.27;;;8.30;;
18304;SDS011;9278;52.156;21.048;2023-03-31T02:57:59;14.35;;;7.88;;
18304;SDS011;9278;52.156;21.048;2023-03-31T03:00:48;12.95;;;7.93;;
18304;SDS011;9278;52.156;21.048;2023-03-31T03:03:34;15.98;;;8.35;;
18304;SDS011;9278;52.156;21.048;2023-03-31T03:06:14;13.93;;;7.93;;
18304;SDS011;9278;52.156;21.048;2023-03-31T03:09:05;11.77;;;8.07;;
18304;SDS011;9278;52.156;21.048;2023-03-31T03:11:45;15.77;;;8.13;;
18304;SDS011;9278;52.156;21.048;2023-03-31T03:14:22;12.95;;;8.30;;
18304;SDS011;9278;52.156;21.048;2023-03-31T03:16:56;15.90;;;8.43;;
18304;SDS011;9278;52.156;21.048;2023-03-31T03:19:28;14.38;;;8.70;;
18304;SDS011;9278;52.156;21.048;2023-03-31T03:21:56;15.30;;;8.82;;
18304;SDS011;9278;52.156;21.048;2023-03-31T03:24:25;14.63;;;9.00;;
18304;SDS011;9278;52.156;21.048;2023-03-31T03:26:55;17.05;;;9.13;;
18304;SDS011;9278;52.156;21.048;2023-03-31T03:29:25;17.70;;;8.70;;
18304;SDS011;9278;52.156;21.048;2023-03-31T03:31:54;16.42;;;8.68;;
18304;SDS011;9278;52.156;21.048;2023-03-31T03:34:22;14.38;;;9.40;;
18304;SDS011;9278;52.156;21.048;2023-03-31T03:36:51;16.63;;;9.18;;
18304;SDS011;9278;52.156;21.048;2023-03-31T03:39:19;15.23;;;9.02;;
18304;SDS011;9278;52.156;21.048;2023-03-31T03:41:47;17.08;;;9.38;;
18304;SDS011;9278;52.156;21.048;2023-03-31T03:44:15;14.63;;;8.98;;
18304;SDS011;9278;52.156;21.048;2023-03-31T03:46:45;16.70;;;9.35;;
18304;SDS011;9278;52.156;21.048;2023-03-31T03:49:14;17.23;;;8.57;;
18304;SDS011;9278;52.156;21.048;2023-03-31T03:51:42;15.30;;;9.57;;
18304;SDS011;9278;52.156;21.048;2023-03-31T03:54:10;14.85;;;9.38;;
18304;SDS011;9278;52.156;21.048;2023-03-31T03:56:38;16.17;;;9.50;;
18304;SDS011;9278;52.156;21.048;2023-03-31T03:59:07;14.98;;;9.32;;
18304;SDS011;9278;52.156;21.048;2023-03-31T04:01:35;17.55;;;9.73;;
18304;SDS011;9278;52.156;21.048;2023-03-31T04:04:05;16.63;;;9.85;;
18304;SDS011;9278;52.156;21.048;2023-03-31T04:06:33;19.13;;;10.40;;
18304;SDS011;9278;52.156;21.048;2023-03-31T04:09:02;17.85;;;10.63;;
18304;SDS011;9278;52.156;21.048;2023-03-31T04:11:30;15.20;;;9.88;;
18304;SDS011;9278;52.156;21.048;2023-03-31T04:13:59;17.73;;;10.30;;
18304;SDS011;9278;52.156;21.048;2023-03-31T04:16:27;15.40;;;9.80;;
18304;SDS011;9278;52.156;21.048;2023-03-31T04:18:56;20.65;;;9.32;;
18304;SDS011;9278;52.156;21.048;2023-03-31T04:21:26;16.98;;;10.40;;
18304;SDS011;9278;52.156;21.048;2023-03-31T04:23:56;18.20;;;10.23;;
18304;SDS011;9278;52.156;21.048;2023-03-31T04:26:27;18.05;;;9.90;;
18304;SDS011;9278;52.156;21.048;2023-03-31T04:29:04;17.98;;;9.77;;
18304;SDS011;9278;52.156;21.048;2023-03-31T04:31:33;22.63;;;10.38;;
18304;SDS011;9278;52.156;21.048;2023-03-31T04:34:04;15.68;;;9.30;;
18304;SDS011;9278;52.156;21.048;2023-03-31T04:36:40;17.48;;;9.45;;
18304;SDS011;9278;52.156;21.048;2023-03-31T04:39:13;18.50;;;10.38;;
18304;SDS011;9278;52.156;21.048;2023-03-31T04:41:42;18.95;;;9.75;;
18304;SDS011;9278;52.156;21.048;2023-03-31T04:44:10;15.02;;;10.07;;
18304;SDS011;9278;52.156;21.048;2023-03-31T04:46:39;19.25;;;10.98;;
18304;SDS011;9278;52.156;21.048;2023-03-31T04:49:07;18.63;;;10.32;;
18304;SDS011;9278;52.156;21.048;2023-03-31T04:51:35;19.17;;;10.68;;
18304;SDS011;9278;52.156;21.048;2023-03-31T04:54:05;18.80;;;10.68;;
18304;SDS011;9278;52.156;21.048;2023-03-31T04:56:33;19.95;;;10.85;;
18304;SDS011;9278;52.156;21.048;2023-03-31T04:59:01;19.30;;;10.93;;
18304;SDS011;9278;52.156;21.048;2023-03-31T05:01:29;22.25;;;11.02;;
18304;SDS011;9278;52.156;21.048;2023-03-31T05:03:59;18.98;;;11.02;;
18304;SDS011;9278;52.156;21.048;2023-03-31T05:06:27;15.80;;;10.65;;
18304;SDS011;9278;52.156;21.048;2023-03-31T05:08:55;18.52;;;11.15;;
18304;SDS011;9278;52.156;21.048;2023-03-31T05:11:25;18.23;;;10.43;;
18304;SDS011;9278;52.156;21.048;2023-03-31T05:13:54;20.50;;;9.85;;
18304;SDS011;9278;52.156;21.048;2023-03-31T05:16:22;17.27;;;11.07;;
18304;SDS011;9278;52.156;21.048;2023-03-31T05:18:51;19.95;;;10.32;;
18304;SDS011;9278;52.156;21.048;2023-03-31T05:21:20;19.15;;;10.48;;
18304;SDS011;9278;52.156;21.048;2023-03-31T05:23:49;21.70;;;10.02;;
18304;SDS011;9278;52.156;21.048;2023-03-31T05:26:17;21.38;;;11.55;;
18304;SDS011;9278;52.156;21.048;2023-03-31T05:28:49;20.73;;;11.20;;
18304;SDS011;9278;52.156;21.048;2023-03-31T05:31:17;17.17;;;11.95;;
18304;SDS011;9278;52.156;21.048;2023-03-31T05:33:45;21.40;;;11.82;;
18304;SDS011;9278;52.156;21.048;2023-03-31T05:36:15;21.75;;;12.63;;
18304;SDS011;9278;52.156;21.048;2023-03-31T05:38:44;19.80;;;12.38;;
18304;SDS011;9278;52.156;21.048;2023-03-31T05:41:13;21.88;;;11.95;;
18304;SDS011;9278;52.156;21.048;2023-03-31T05:43:42;23.40;;;12.15;;
18304;SDS011;9278;52.156;21.048;2023-03-31T05:46:12;19.92;;;12.30;;
18304;SDS011;9278;52.156;21.048;2023-03-31T05:48:40;22.08;;;12.73;;
18304;SDS011;9278;52.156;21.048;2023-03-31T05:51:08;20.58;;;12.32;;
18304;SDS011;9278;52.156;21.048;2023-03-31T05:53:37;24.42;;;13.00;;
18304;SDS011;9278;52.156;21.048;2023-03-31T05:56:06;23.60;;;12.48;;
18304;SDS011;9278;52.156;21.048;2023-03-31T05:58:35;21.02;;;11.50;;
18304;SDS011;9278;52.156;21.048;2023-03-31T06:01:04;21.13;;;11.18;;
18304;SDS011;9278;52.156;21.048;2023-03-31T06:03:40;20.83;;;12.02;;
18304;SDS011;9278;52.156;21.048;2023-03-31T06:06:09;21.73;;;11.98;;
18304;SDS011;9278;52.156;21.048;2023-03-31T06:08:40;20.85;;;11.07;;
18304;SDS011;9278;52.156;21.048;2023-03-31T06:11:10;24.98;;;11.32;;
18304;SDS011;9278;52.156;21.048;2023-03-31T06:13:40;18.40;;;11.18;;
18304;SDS011;9278;52.156;21.048;2023-03-31T06:16:09;20.65;;;10.90;;
18304;SDS011;9278;52.156;21.048;2023-03-31T06:18:40;20.65;;;12.25;;
18304;SDS011;9278;52.156;21.048;2023-03-31T06:21:09;18.33;;;10.98;;
18304;SDS011;9278;52.156;21.048;2023-03-31T06:23:39;19.95;;;11.68;;
18304;SDS011;9278;52.156;21.048;2023-03-31T06:26:10;20.42;;;11.05;;
18304;SDS011;9278;52.156;21.048;2023-03-31T06:28:39;17.65;;;9.07;;
18304;SDS011;9278;52.156;21.048;2023-03-31T06:31:08;20.55;;;11.27;;
18304;SDS011;9278;52.156;21.048;2023-03-31T06:33:38;20.33;;;10.75;;
18304;SDS011;9278;52.156;21.048;2023-03-31T06:36:09;19.30;;;10.88;;
18304;SDS011;9278;52.156;21.048;2023-03-31T06:38:38;19.15;;;11.38;;
18304;SDS011;9278;52.156;21.048;2023-03-31T06:41:08;19.45;;;11.13;;
18304;SDS011;9278;52.156;21.048;2023-03-31T06:43:38;15.82;;;10.25;;
18304;SDS011;9278;52.156;21.048;2023-03-31T06:46:06;17.48;;;10.65;;
18304;SDS011;9278;52.156;21.048;2023-03-31T06:48:35;22.65;;;10.65;;
18304;SDS011;9278;52.156;21.048;2023-03-31T06:51:05;19.42;;;10.23;;
18304;SDS011;9278;52.156;21.048;2023-03-31T06:53:35;18.63;;;10.75;;
18304;SDS011;9278;52.156;21.048;2023-03-31T06:56:03;19.25;;;11.68;;
18304;SDS011;9278;52.156;21.048;2023-03-31T06:58:33;19.55;;;10.80;;
18304;SDS011;9278;52.156;21.048;2023-03-31T07:01:02;19.33;;;10.85;;
18304;SDS011;9278;52.156;21.048;2023-03-31T07:03:32;19.58;;;11.05;;
18304;SDS011;9278;52.156;21.048;2023-03-31T07:06:00;16.90;;;11.75;;
18304;SDS011;9278;52.156;21.048;2023-03-31T07:08:30;21.52;;;13.38;;
18304;SDS011;9278;52.156;21.048;2023-03-31T07:10:59;24.20;;;13.43;;
18304;SDS011;9278;52.156;21.048;2023-03-31T07:13:27;20.85;;;13.43;;
18304;SDS011;9278;52.156;21.048;2023-03-31T07:15:56;22.90;;;13.63;;
18304;SDS011;9278;52.156;21.048;2023-03-31T07:18:25;25.42;;;14.65;;
18304;SDS011;9278;52.156;21.048;2023-03-31T07:21:01;26.77;;;15.23;;
18304;SDS011;9278;52.156;21.048;2023-03-31T07:23:36;27.90;;;15.75;;
18304;SDS011;9278;52.156;21.048;2023-03-31T07:26:05;24.80;;;15.40;;
18304;SDS011;9278;52.156;21.048;2023-03-31T07:28:34;23.25;;;15.50;;
18304;SDS011;9278;52.156;21.048;2023-03-31T07:31:02;24.15;;;15.88;;
18304;SDS011;9278;52.156;21.048;2023-03-31T07:33:37;29.48;;;16.83;;
18304;SDS011;9278;52.156;21.048;2023-03-31T07:36:06;25.48;;;16.40;;
18304;SDS011;9278;52.156;21.048;2023-03-31T07:38:41;21.20;;;15.25;;
18304;SDS011;9278;52.156;21.048;2023-03-31T07:41:13;24.48;;;14.80;;
18304;SDS011;9278;52.156;21.048;2023-03-31T07:43:43;23.05;;;14.75;;
18304;SDS011;9278;52.156;21.048;2023-03-31T07:46:16;26.38;;;15.38;;
18304;SDS011;9278;52.156;21.048;2023-03-31T07:48:46;21.95;;;14.75;;
18304;SDS011;9278;52.156;21.048;2023-03-31T07:51:16;23.73;;;14.93;;
18304;SDS011;9278;52.156;21.048;2023-03-31T07:53:46;20.20;;;13.60;;
18304;SDS011;9278;52.156;21.048;2023-03-31T07:56:18;23.17;;;13.55;;
18304;SDS011;9278;52.156;21.048;2023-03-31T07:58:46;20.00;;;13.10;;
18304;SDS011;9278;52.156;21.048;2023-03-31T08:01:15;25.30;;;14.07;;
18304;SDS011;9278;52.156;21.048;2023-03-31T08:03:44;20.95;;;13.43;;
18304;SDS011;9278;52.156;21.048;2023-03-31T08:06:16;25.95;;;13.60;;
18304;SDS011;9278;52.156;21.048;2023-03-31T08:08:44;22.10;;;12.55;;
18304;SDS011;9278;52.156;21.048;2023-03-31T08:11:14;20.52;;;13.02;;
18304;SDS011;9278;52.156;21.048;2023-03-31T08:13:42;21.65;;;13.73;;
18304;SDS011;9278;52.156;21.048;2023-03-31T08:16:11;19.08;;;12.63;;
18304;SDS011;9278;52.156;21.048;2023-03-31T08:18:39;23.70;;;13.10;;
18304;SDS011;9278;52.156;21.048;2023-03-31T08:21:07;21.55;;;13.93;;
18304;SDS011;9278;52.156;21.048;2023-03-31T08:23:36;21.73;;;13.00;;
18304;SDS011;9278;52.156;21.048;2023-03-31T08:26:10;23.08;;;12.60;;
18304;SDS011;9278;52.156;21.048;2023-03-31T08:28:43;21.65;;;12.27;;
18304;SDS011;9278;52.156;21.048;2023-03-31T08:31:11;19.15;;;11.77;;
18304;SDS011;9278;52.156;21.048;2023-03-31T08:33:42;20.15;;;11.50;;
18304;SDS011;9278;52.156;21.048;2023-03-31T08:36:11;16.92;;;10.35;;
18304;SDS011;9278;52.156;21.048;2023-03-31T08:38:40;18.98;;;11.52;;
18304;SDS011;9278;52.156;21.048;2023-03-31T08:41:15;15.27;;;9.82;;
18304;SDS011;9278;52.156;21.048;2023-03-31T08:44:01;13.93;;;9.38;;
18304;SDS011;9278;52.156;21.048;2023-03-31T08:46:35;15.35;;;9.10;;
18304;SDS011;9278;52.156;21.048;2023-03-31T08:49:05;14.88;;;9.43;;
18304;SDS011;9278;52.156;21.048;2023-03-31T08:51:38;16.23;;;9.18;;
18304;SDS011;9278;52.156;21.048;2023-03-31T08:54:10;17.02;;;9.50;;
18304;SDS011;9278;52.156;21.048;2023-03-31T08:56:45;17.77;;;9.68;;
18304;SDS011;9278;52.156;21.048;2023-03-31T08:59:16;12.02;;;8.55;;
18304;SDS011;9278;52.156;21.048;2023-03-31T09:01:55;11.15;;;7.68;;
18304;SDS011;9278;52.156;21.048;2023-03-31T09:04:35;15.23;;;7.63;;
18304;SDS011;9278;52.156;21.048;2023-03-31T09:07:27;14.25;;;7.93;;
18304;SDS011;9278;52.156;21.048;2023-03-31T09:10:04;13.70;;;7.30;;
18304;SDS011;9278;52.156;21.048;2023-03-31T09:12:49;12.27;;;7.18;;
18304;SDS011;9278;52.156;21.048;2023-03-31T09:15:23;12.27;;;6.85;;
18304;SDS011;9278;52.156;21.048;2023-03-31T09:17:54;12.30;;;7.45;;
18304;SDS011;9278;52.156;21.048;2023-03-31T09:20:29;14.40;;;6.95;;
18304;SDS011;9278;52.156;21.048;2023-03-31T09:23:00;10.82;;;6.28;;
18304;SDS011;9278;52.156;21.048;2023-03-31T09:25:33;14.05;;;6.47;;
18304;SDS011;9278;52.156;21.048;2023-03-31T09:28:08;11.55;;;6.47;;
18304;SDS011;9278;52.156;21.048;2023-03-31T09:30:40;12.18;;;6.50;;
18304;SDS011;9278;52.156;21.048;2023-03-31T09:33:10;16.35;;;6.30;;
18304;SDS011;9278;52.156;21.048;2023-03-31T09:35:42;13.05;;;6.50;;
18304;SDS011;9278;52.156;21.048;2023-03-31T09:38:12;12.80;;;6.32;;
18304;SDS011;9278;52.156;21.048;2023-03-31T09:40:42;14.65;;;6.45;;
18304;SDS011;9278;52.156;21.048;2023-03-31T09:43:14;15.80;;;5.88;;
18304;SDS011;9278;52.156;21.048;2023-03-31T09:45:48;10.98;;;6.10;;
18304;SDS011;9278;52.156;21.048;2023-03-31T09:48:34;14.32;;;5.82;;
18304;SDS011;9278;52.156;21.048;2023-03-31T09:51:04;11.73;;;5.55;;
18304;SDS011;9278;52.156;21.048;2023-03-31T09:53:42;11.40;;;5.32;;
18304;SDS011;9278;52.156;21.048;2023-03-31T09:56:30;11.57;;;5.07;;
18304;SDS011;9278;52.156;21.048;2023-03-31T09:59:02;13.82;;;5.65;;
18304;SDS011;9278;52.156;21.048;2023-03-31T10:01:30;13.32;;;4.93;;
18304;SDS011;9278;52.156;21.048;2023-03-31T10:03:59;7.88;;;4.38;;
18304;SDS011;9278;52.156;21.048;2023-03-31T10:06:31;9.98;;;4.53;;
18304;SDS011;9278;52.156;21.048;2023-03-31T10:09:00;15.50;;;4.40;;
18304;SDS011;9278;52.156;21.048;2023-03-31T10:11:30;14.85;;;4.68;;
18304;SDS011;9278;52.156;21.048;2023-03-31T10:14:00;8.30;;;3.83;;
18304;SDS011;9278;52.156;21.048;2023-03-31T10:16:34;11.80;;;4.40;;
18304;SDS011;9278;52.156;21.048;2023-03-31T10:19:12;8.70;;;4.40;;
18304;SDS011;9278;52.156;21.048;2023-03-31T10:21:46;12.43;;;4.18;;
18304;SDS011;9278;52.156;21.048;2023-03-31T10:24:21;11.60;;;3.95;;
18304;SDS011;9278;52.156;21.048;2023-03-31T10:26:51;9.60;;;4.18;;
18304;SDS011;9278;52.156;21.048;2023-03-31T10:29:26;7.28;;;4.18;;
18304;SDS011;9278;52.156;21.048;2023-03-31T10:32:01;9.07;;;4.45;;
18304;SDS011;9278;52.156;21.048;2023-03-31T10:34:30;12.93;;;4.70;;
18304;SDS011;9278;52.156;21.048;2023-03-31T10:36:59;11.13;;;5.70;;
18304;SDS011;9278;52.156;21.048;2023-03-31T10:39:31;13.55;;;4.53;;
18304;SDS011;9278;52.156;21.048;2023-03-31T10:41:59;9.80;;;3.83;;
18304;SDS011;9278;52.156;21.048;2023-03-31T10:44:33;12.95;;;4.20;;
18304;SDS011;9278;52.156;21.048;2023-03-31T10:47:04;10.43;;;4.22;;
18304;SDS011;9278;52.156;21.048;2023-03-31T10:49:43;9.50;;;4.25;;
18304;SDS011;9278;52.156;21.048;2023-03-31T10:52:15;9.88;;;4.00;;
18304;SDS011;9278;52.156;21.048;2023-03-31T10:54:50;6.28;;;3.30;;
18304;SDS011;9278;52.156;21.048;2023-03-31T10:57:23;10.57;;;3.20;;
18304;SDS011;9278;52.156;21.048;2023-03-31T11:00:13;10.63;;;3.80;;
18304;SDS011;9278;52.156;21.048;2023-03-31T11:02:56;9.63;;;3.67;;
18304;SDS011;9278;52.156;21.048;2023-03-31T11:05:35;7.65;;;3.03;;
18304;SDS011;9278;52.156;21.048;2023-03-31T11:08:12;13.40;;;3.72;;
18304;SDS011;9278;52.156;21.048;2023-03-31T11:10:55;7.75;;;3.28;;
18304;SDS011;9278;52.156;21.048;2023-03-31T11:13:35;8.27;;;2.88;;
18304;SDS011;9278;52.156;21.048;2023-03-31T11:16:12;10.27;;;2.80;;
18304;SDS011;9278;52.156;21.048;2023-03-31T11:18:49;7.25;;;3.10;;
18304;SDS011;9278;52.156;21.048;2023-03-31T11:21:31;9.60;;;3.10;;
18304;SDS011;9278;52.156;21.048;2023-03-31T11:24:12;11.02;;;3.80;;
18304;SDS011;9278;52.156;21.048;2023-03-31T11:26:53;9.10;;;3.10;;
18304;SDS011;9278;52.156;21.048;2023-03-31T11:29:30;8.70;;;3.55;;
18304;SDS011;9278;52.156;21.048;2023-03-31T11:32:21;7.82;;;3.20;;
18304;SDS011;9278;52.156;21.048;2023-03-31T11:35:00;7.68;;;2.85;;
18304;SDS011;9278;52.156;21.048;2023-03-31T11:37:46;9.15;;;3.47;;
18304;SDS011;9278;52.156;21.048;2023-03-31T11:40:36;7.40;;;3.00;;
18304;SDS011;9278;52.156;21.048;2023-03-31T11:43:15;6.25;;;2.88;;
18304;SDS011;9278;52.156;21.048;2023-03-31T11:45:52;7.78;;;2.97;;
18304;SDS011;9278;52.156;21.048;2023-03-31T11:48:30;6.13;;;3.05;;
18304;SDS011;9278;52.156;21.048;2023-03-31T11:51:06;8.38;;;3.10;;
18304;SDS011;9278;52.156;21.048;2023-03-31T11:53:40;12.20;;;3.20;;
18304;SDS011;9278;52.156;21.048;2023-03-31T11:56:11;9.40;;;3.13;;
18304;SDS011;9278;52.156;21.048;2023-03-31T11:58:41;8.10;;;3.22;;
18304;SDS011;9278;52.156;21.048;2023-03-31T12:01:15;6.07;;;2.83;;
18304;SDS011;9278;52.156;21.048;2023-03-31T12:03:51;8.07;;;3.55;;
18304;SDS011;9278;52.156;21.048;2023-03-31T12:06:27;9.18;;;3.20;;
18304;SDS011;9278;52.156;21.048;2023-03-31T12:09:01;7.10;;;2.90;;
18304;SDS011;9278;52.156;21.048;2023-03-31T12:11:35;10.15;;;3.15;;
18304;SDS011;9278;52.156;21.048;2023-03-31T12:14:12;6.60;;;2.70;;
18304;SDS011;9278;52.156;21.048;2023-03-31T12:16:48;8.00;;;3.40;;
18304;SDS011;9278;52.156;21.048;2023-03-31T12:19:21;9.63;;;2.88;;
18304;SDS011;9278;52.156;21.048;2023-03-31T12:21:55;9.13;;;3.13;;
18304;SDS011;9278;52.156;21.048;2023-03-31T12:24:27;6.40;;;2.85;;
18304;SDS011;9278;52.156;21.048;2023-03-31T12:27:00;12.88;;;2.97;;
18304;SDS011;9278;52.156;21.048;2023-03-31T12:29:35;8.98;;;3.03;;
18304;SDS011;9278;52.156;21.048;2023-03-31T12:32:06;8.55;;;3.17;;
18304;SDS011;9278;52.156;21.048;2023-03-31T12:34:43;9.05;;;2.88;;
18304;SDS011;9278;52.156;21.048;2023-03-31T12:40:37;11.77;;;3.28;;
18304;SDS011;9278;52.156;21.048;2023-03-31T12:46:33;10.38;;;3.20;;
18304;SDS011;9278;52.156;21.048;2023-03-31T12:49:31;8.73;;;2.80;;
18304;SDS011;9278;52.156;21.048;2023-03-31T12:52:11;4.90;;;2.90;;
18304;SDS011;9278;52.156;21.048;2023-03-31T12:54:52;13.18;;;3.15;;
18304;SDS011;9278;52.156;21.048;2023-03-31T12:57:35;11.02;;;3.00;;
18304;SDS011;9278;52.156;21.048;2023-03-31T13:00:23;11.68;;;3.28;;
18304;SDS011;9278;52.156;21.048;2023-03-31T13:05:59;7.57;;;3.00;;
18304;SDS011;9278;52.156;21.048;2023-03-31T13:08:51;9.95;;;3.22;;
18304;SDS011;9278;52.156;21.048;2023-03-31T13:11:33;7.43;;;2.47;;
18304;SDS011;9278;52.156;21.048;2023-03-31T13:14:06;6.05;;;2.53;;
18304;SDS011;9278;52.156;21.048;2023-03-31T13:16:41;7.60;;;2.40;;
18304;SDS011;9278;52.156;21.048;2023-03-31T13:19:09;7.93;;;2.58;;
18304;SDS011;9278;52.156;21.048;2023-03-31T13:21:52;6.75;;;2.47;;
18304;SDS011;9278;52.156;21.048;2023-03-31T13:24:23;6.93;;;2.30;;
18304;SDS011;9278;52.156;21.048;2023-03-31T13:26:53;5.63;;;2.10;;
18304;SDS011;9278;52.156;21.048;2023-03-31T13:29:23;7.25;;;2.25;;
18304;SDS011;9278;52.156;21.048;2023-03-31T13:32:05;7.28;;;1.98;;
18304;SDS011;9278;52.156;21.048;2023-03-31T13:34:50;8.50;;;2.38;;
18304;SDS011;9278;52.156;21.048;2023-03-31T13:37:36;6.85;;;2.33;;
18304;SDS011;9278;52.156;21.048;2023-03-31T13:40:23;9.13;;;2.70;;
18304;SDS011;9278;52.156;21.048;2023-03-31T13:43:36;8.48;;;2.38;;
18304;SDS011;9278;52.156;21.048;2023-03-31T13:46:19;6.03;;;2.30;;
18304;SDS011;9278;52.156;21.048;2023-03-31T13:49:15;10.88;;;2.58;;
18304;SDS011;9278;52.156;21.048;2023-03-31T13:52:08;5.60;;;2.40;;
18304;SDS011;9278;52.156;21.048;2023-03-31T13:54:51;10.55;;;2.60;;
18304;SDS011;9278;52.156;21.048;2023-03-31T13:57:55;5.95;;;2.40;;
18304;SDS011;9278;52.156;21.048;2023-03-31T14:01:05;9.10;;;2.70;;
18304;SDS011;9278;52.156;21.048;2023-03-31T14:04:00;8.52;;;2.38;;
18304;SDS011;9278;52.156;21.048;2023-03-31T14:06:40;6.97;;;2.25;;
18304;SDS011;9278;52.156;21.048;2023-03-31T14:09:17;7.13;;;2.33;;
18304;SDS011;9278;52.156;21.048;2023-03-31T14:11:51;8.82;;;2.22;;
18304;SDS011;9278;52.156;21.048;2023-03-31T14:14:23;5.82;;;2.35;;
18304;SDS011;9278;52.156;21.048;2023-03-31T14:16:52;6.88;;;2.40;;
18304;SDS011;9278;52.156;21.048;2023-03-31T14:19:33;6.85;;;2.38;;
18304;SDS011;9278;52.156;21.048;2023-03-31T14:22:21;6.80;;;2.20;;
18304;SDS011;9278;52.156;21.048;2023-03-31T14:25:01;6.10;;;2.58;;
18304;SDS011;9278;52.156;21.048;2023-03-31T14:27:41;8.30;;;2.40;;
18304;SDS011;9278;52.156;21.048;2023-03-31T14:30:25;6.63;;;2.53;;
18304;SDS011;9278;52.156;21.048;2023-03-31T14:33:05;4.82;;;2.00;;
18304;SDS011;9278;52.156;21.048;2023-03-31T14:35:43;7.95;;;2.83;;
18304;SDS011;9278;52.156;21.048;2023-03-31T14:38:20;5.07;;;2.80;;
18304;SDS011;9278;52.156;21.048;2023-03-31T14:40:50;7.13;;;2.40;;
18304;SDS011;9278;52.156;21.048;2023-03-31T14:43:22;10.05;;;2.85;;
18304;SDS011;9278;52.156;21.048;2023-03-31T14:45:59;13.02;;;3.00;;
18304;SDS011;9278;52.156;21.048;2023-03-31T14:48:29;10.73;;;2.97;;
18304;SDS011;9278;52.156;21.048;2023-03-31T14:51:01;9.43;;;2.40;;
18304;SDS011;9278;52.156;21.048;2023-03-31T14:53:30;10.57;;;3.28;;
18304;SDS011;9278;52.156;21.048;2023-03-31T14:56:00;6.85;;;2.95;;
18304;SDS011;9278;52.156;21.048;2023-03-31T14:58:32;9.00;;;3.05;;
18304;SDS011;9278;52.156;21.048;2023-03-31T15:01:05;8.52;;;3.03;;
18304;SDS011;9278;52.156;21.048;2023-03-31T15:03:35;10.52;;;2.95;;
18304;SDS011;9278;52.156;21.048;2023-03-31T15:06:08;10.30;;;3.03;;
18304;SDS011;9278;52.156;21.048;2023-03-31T15:08:37;8.55;;;2.53;;
18304;SDS011;9278;52.156;21.048;2023-03-31T15:11:07;7.63;;;2.80;;
18304;SDS011;9278;52.156;21.048;2023-03-31T15:13:45;9.10;;;2.88;;
18304;SDS011;9278;52.156;21.048;2023-03-31T15:16:33;11.15;;;2.88;;
18304;SDS011;9278;52.156;21.048;2023-03-31T15:19:10;7.07;;;2.95;;
18304;SDS011;9278;52.156;21.048;2023-03-31T15:21:42;11.05;;;3.08;;
18304;SDS011;9278;52.156;21.048;2023-03-31T15:24:11;6.95;;;2.60;;
18304;SDS011;9278;52.156;21.048;2023-03-31T15:26:41;5.97;;;2.83;;